createdAt,value
2023-01-18T09:59:59.797Z,78.07
2023-01-18T10:02:39.398Z,77.92
2023-01-18T10:05:19.159Z,78.11
2023-01-18T10:08:02.688Z,78.41
2023-01-18T10:10:51.666Z,76.91
2023-01-18T10:14:15.173Z,77.41
2023-01-18T10:16:42.581Z,78.42
2023-01-18T10:19:24.369Z,77.70
2023-01-18T10:22:19.584Z,77.62
2023-01-18T10:25:35.587Z,75.91
2023-01-18T10:28:46.792Z,75.00
2023-01-18T10:32:04.506Z,74.60
2023-01-18T10:34:39.458Z,74.15
2023-01-18T10:37:37.607Z,75.31
2023-01-18T10:40:13.787Z,74.44
2023-01-18T10:42:51.780Z,74.28
2023-01-18T10:45:29.415Z,74.42
2023-01-18T10:48:12.850Z,75.07
2023-01-18T10:50:44.502Z,74.12
2023-01-18T10:53:23.819Z,74.44
2023-01-18T10:56:16.550Z,74.31
2023-01-18T10:59:00.848Z,72.96
2023-01-18T11:01:36.786Z,74.46
2023-01-18T11:04:22.219Z,74.93
2023-01-18T11:07:03.277Z,74.00
2023-01-18T11:09:52.107Z,72.69
2023-01-18T11:12:47.798Z,73.03
2023-01-18T11:15:15.024Z,72.08
2023-01-18T11:17:58.054Z,72.65
2023-01-18T11:20:55.852Z,72.18
2023-01-18T11:23:37.226Z,72.29
2023-01-18T11:26:19.184Z,73.28
2023-01-18T11:29:05.204Z,72.76
2023-01-18T11:31:49.676Z,72.87
2023-01-18T11:34:43.574Z,74.06
2023-01-18T11:37:40.812Z,73.54
2023-01-18T11:40:26.757Z,73.16
2023-01-18T11:43:25.987Z,72.48
2023-01-18T11:46:22.736Z,73.23
2023-01-18T11:49:35.465Z,71.77
2023-01-18T11:52:27.331Z,71.61
2023-01-18T11:55:03.844Z,72.51
2023-01-18T11:57:31.686Z,71.96
2023-01-18T11:59:59.885Z,72.13
2023-01-18T12:03:11.576Z,72.29
2023-01-18T12:06:31.412Z,72.11
2023-01-18T12:09:45.180Z,71.73
2023-01-18T12:13:42.069Z,71.39
2023-01-18T12:16:27.741Z,71.25
2023-01-18T12:19:50.760Z,70.10
2023-01-18T12:22:56.167Z,71.20
2023-01-18T12:26:06.840Z,71.06
2023-01-18T12:29:11.386Z,71.50
2023-01-18T12:32:24.431Z,71.73
2023-01-18T12:35:47.388Z,71.47
2023-01-18T12:38:49.232Z,72.38
2023-01-18T12:41:44.960Z,70.80
2023-01-18T12:45:04.647Z,70.64
2023-01-18T12:47:39.258Z,70.64
2023-01-18T12:50:27.759Z,70.64
2023-01-18T12:53:05.379Z,70.45
2023-01-18T12:55:36.197Z,70.81
2023-01-18T12:58:04.204Z,71.14
2023-01-18T13:00:37.942Z,70.94
2023-01-18T13:03:17.838Z,70.74
2023-01-18T13:06:00.692Z,69.42
2023-01-18T13:09:00.949Z,69.55
2023-01-18T13:11:41.873Z,70.08
2023-01-18T13:15:05.045Z,69.97
2023-01-18T13:17:55.857Z,69.80
2023-01-18T13:20:51.818Z,70.10
2023-01-18T13:24:00.014Z,70.07
2023-01-18T13:26:35.655Z,69.85
2023-01-18T13:29:30.066Z,69.25
2023-01-18T13:31:58.167Z,70.34
2023-01-18T13:34:47.674Z,69.57
2023-01-18T13:38:14.103Z,70.32
2023-01-18T13:40:56.364Z,69.82
2023-01-18T13:43:35.317Z,69.26
2023-01-18T13:46:07.369Z,70.19
2023-01-18T13:49:36.348Z,69.82
2023-01-18T13:52:42.361Z,69.82
2023-01-18T13:55:31.942Z,70.11
2023-01-18T13:57:59.756Z,70.35
2023-01-18T14:00:28.915Z,69.52
2023-01-18T14:03:15.892Z,70.28
2023-01-18T14:05:48.705Z,70.35
2023-01-18T14:08:29.147Z,70.31
2023-01-18T14:11:20.998Z,70.21
2023-01-18T14:13:48.478Z,71.10
2023-01-18T14:16:25.529Z,70.66
2023-01-18T14:19:22.234Z,71.32
2023-01-18T14:23:01.108Z,71.61
2023-01-18T14:25:56.693Z,72.32
2023-01-18T14:28:52.498Z,72.39
2023-01-18T14:31:33.286Z,72.54
2023-01-18T14:34:41.412Z,72.74
2023-01-18T14:37:34.480Z,73.55
2023-01-18T14:40:28.417Z,72.92
